Time;durP1;ratioP1;P1;durP2;ratioP2;P2;SDS_P1;SDS_P2;PMS_P1;PMS_P2;Temp;Humidity;BMP_temperature;BMP_pressure;BME280_temperature;BME280_humidity;BME280_pressure;Samples;Min_cycle;Max_cycle;Signal;HPM_P1;HPM_P2
2023/01/15 00:01:27;;;;;;;;;;;6.80;99.90;;;;;;5016767;28;19921;-71
2023/01/15 00:03:54;;;;;;;;;;;6.80;99.90;;;;;;5035666;28;19920;-72
2023/01/15 00:06:20;;;;;;;;;;;6.80;99.90;;;;;;5027301;28;19929;-71
2023/01/15 00:08:46;;;;;;;;;;;6.70;99.90;;;;;;5032422;28;19980;-69
2023/01/15 00:11:13;;;;;;;;;;;6.60;99.90;;;;;;5034996;28;19965;-70
2023/01/15 00:13:39;;;;;;;;;;;6.70;99.90;;;;;;5034925;28;20403;-71
2023/01/15 00:16:06;;;;;;;;;;;6.90;99.90;;;;;;5035161;28;19960;-71
2023/01/15 00:18:35;;;;;;;;;;;6.90;99.90;;;;;;5034555;28;19925;-71
2023/01/15 00:21:01;;;;;;;;;;;6.80;99.90;;;;;;5033624;28;19927;-71
2023/01/15 00:28:56;;;;;;;;;;;6.70;99.90;;;;;;5030921;28;19925;-71
2023/01/15 00:31:22;;;;;;;;;;;7.00;99.90;;;;;;5032952;28;19921;-71
2023/01/15 00:33:48;;;;;;;;;;;6.70;99.90;;;;;;5032865;28;20384;-71
2023/01/15 00:36:13;;;;;;;;;;;6.70;99.90;;;;;;5033151;28;19923;-71
2023/01/15 00:38:39;;;;;;;;;;;8.40;99.90;;;;;;5034515;28;19921;-71
2023/01/15 00:41:04;;;;;;;;;;;7.90;99.90;;;;;;5033826;28;19921;-71
2023/01/15 00:43:30;;;;;;;;;;;6.70;99.90;;;;;;5031993;28;19924;-70
2023/01/15 00:45:56;;;;;;;;;;;6.70;99.90;;;;;;5033979;28;19929;-70
2023/01/15 00:48:21;;;;;;;;;;;6.70;99.90;;;;;;5032870;28;20020;-71
2023/01/15 00:50:47;;;;;;;;;;;6.60;99.90;;;;;;5034299;28;19921;-71
2023/01/15 00:53:16;;;;;;;;;;;6.60;99.90;;;;;;5031319;28;19925;-71
2023/01/15 00:55:42;;;;;;;;;;;6.60;99.90;;;;;;5032094;28;20408;-69
2023/01/15 00:58:08;;;;;;;;;;;6.60;99.90;;;;;;5031819;28;19928;-70
2023/01/15 01:00:33;;;;;;;;;;;6.60;99.90;;;;;;5033172;28;19924;-70
2023/01/15 01:03:05;;;;;;;;;;;8.30;99.90;;;;;;5031979;28;19939;-70
2023/01/15 01:05:31;;;;;;;;;;;6.50;99.90;;;;;;5032111;28;19928;-70
2023/01/15 01:07:58;;;;;;;;;;;6.80;99.90;;;;;;5034075;28;19925;-70
2023/01/15 01:10:24;;;;;;;;;;;8.30;99.90;;;;;;5033894;28;19948;-71
2023/01/15 01:12:51;;;;;;;;;;;6.60;99.90;;;;;;5015324;28;20258;-71
2023/01/15 01:15:20;;;;;;;;;;;6.70;99.90;;;;;;5015775;28;19968;-71
2023/01/15 01:17:45;;;;;;;;;;;6.60;99.90;;;;;;5029036;28;19975;-71
2023/01/15 01:20:12;;;;;;;;;;;6.70;99.90;;;;;;5016277;28;19960;-72
2023/01/15 01:22:37;;;;;;;;;;;6.70;99.90;;;;;;5033327;28;19925;-72
2023/01/15 01:25:07;;;;;;;;;;;7.70;99.90;;;;;;5033051;28;19921;-71
2023/01/15 01:27:32;;;;;;;;;;;6.80;99.90;;;;;;5015670;28;19921;-71
2023/01/15 01:29:58;;;;;;;;;;;6.60;99.90;;;;;;5016576;28;19921;-70
2023/01/15 01:32:23;;;;;;;;;;;6.60;99.90;;;;;;5032586;28;19925;-70
2023/01/15 01:34:49;;;;;;;;;;;7.70;99.90;;;;;;5033488;28;19928;-71
2023/01/15 01:37:14;;;;;;;;;;;6.60;99.90;;;;;;5015227;28;19917;-70
2023/01/15 01:39:40;;;;;;;;;;;6.60;99.90;;;;;;5032643;28;19921;-70
2023/01/15 01:42:13;;;;;;;;;;;7.20;99.90;;;;;;5033554;28;20214;-70
2023/01/15 01:44:38;;;;;;;;;;;6.60;99.90;;;;;;5011314;28;19921;-71
2023/01/15 01:47:08;;;;;;;;;;;7.60;99.90;;;;;;5032238;28;19921;-70
2023/01/15 01:49:34;;;;;;;;;;;6.30;99.90;;;;;;5032618;28;19925;-70
2023/01/15 01:52:06;;;;;;;;;;;7.10;99.90;;;;;;5032496;28;20008;-70
2023/01/15 01:54:33;;;;;;;;;;;6.30;99.90;;;;;;5014650;28;19933;-70
2023/01/15 01:56:59;;;;;;;;;;;6.30;99.90;;;;;;5032623;28;19925;-70
2023/01/15 01:59:24;;;;;;;;;;;6.40;99.90;;;;;;5021420;28;20019;-70
2023/01/15 02:01:50;;;;;;;;;;;6.50;99.90;;;;;;5013989;28;19921;-70
2023/01/15 02:04:17;;;;;;;;;;;6.70;99.90;;;;;;5032398;28;19924;-70
2023/01/15 02:06:43;;;;;;;;;;;6.50;99.90;;;;;;5032517;28;20376;-70
2023/01/15 02:09:09;;;;;;;;;;;6.50;99.90;;;;;;5014563;28;19928;-70
2023/01/15 02:11:34;;;;;;;;;;;7.70;99.90;;;;;;5032149;28;19921;-71
2023/01/15 02:14:05;;;;;;;;;;;7.40;99.90;;;;;;5031143;28;19917;-72
2023/01/15 02:16:46;;;;;;;;;;;6.60;99.90;;;;;;5032559;28;19928;-71
2023/01/15 02:19:30;;;;;;;;;;;6.70;99.90;;;;;;5029773;28;19974;-71
2023/01/15 02:22:20;;;;;;;;;;;6.70;99.90;;;;;;5013923;28;19929;-71
2023/01/15 02:25:04;;;;;;;;;;;6.70;99.90;;;;;;5008377;28;20450;-71
2023/01/15 02:27:30;;;;;;;;;;;6.60;99.90;;;;;;5014128;28;19921;-70
2023/01/15 02:30:01;;;;;;;;;;;6.60;99.90;;;;;;5031565;28;19935;-71
2023/01/15 02:32:35;;;;;;;;;;;6.60;99.90;;;;;;5014158;28;20011;-71
2023/01/15 02:35:06;;;;;;;;;;;6.60;99.90;;;;;;5027280;28;19921;-70
2023/01/15 02:37:34;;;;;;;;;;;6.70;99.90;;;;;;5014553;28;20019;-71
2023/01/15 02:40:00;;;;;;;;;;;6.60;99.90;;;;;;5028672;28;19988;-71
2023/01/15 02:42:27;;;;;;;;;;;7.40;99.90;;;;;;5012640;28;19928;-71
2023/01/15 02:44:57;;;;;;;;;;;7.20;99.90;;;;;;5032202;28;19920;-71
2023/01/15 02:47:25;;;;;;;;;;;6.60;99.90;;;;;;5030820;28;20462;-71
2023/01/15 02:49:53;;;;;;;;;;;6.50;99.90;;;;;;5013577;28;20015;-71
2023/01/15 02:52:21;;;;;;;;;;;8.10;99.90;;;;;;5031530;28;19921;-70
2023/01/15 02:55:13;;;;;;;;;;;6.50;99.90;;;;;;5014429;28;19921;-70
2023/01/15 02:57:40;;;;;;;;;;;6.40;99.90;;;;;;4999004;28;20023;-71
2023/01/15 03:00:09;;;;;;;;;;;7.30;99.90;;;;;;5013974;28;19932;-70
2023/01/15 03:02:38;;;;;;;;;;;6.40;99.90;;;;;;5031644;28;19925;-70
2023/01/15 03:05:08;;;;;;;;;;;6.80;99.90;;;;;;5012971;28;19928;-70
2023/01/15 03:07:42;;;;;;;;;;;6.30;99.90;;;;;;5031821;28;19925;-71
2023/01/15 03:10:09;;;;;;;;;;;6.30;99.90;;;;;;5031188;28;19947;-70
2023/01/15 03:13:05;;;;;;;;;;;6.40;99.90;;;;;;4997778;28;20006;-71
2023/01/15 03:18:49;;;;;;;;;;;6.30;99.90;;;;;;5028117;28;20023;-71
2023/01/15 03:21:18;;;;;;;;;;;6.40;99.90;;;;;;5014054;28;20031;-71
2023/01/15 03:23:46;;;;;;;;;;;6.90;99.90;;;;;;5031242;28;19921;-71
2023/01/15 03:26:11;;;;;;;;;;;7.20;99.90;;;;;;5014691;28;19925;-71
2023/01/15 03:28:38;;;;;;;;;;;6.80;99.90;;;;;;5017818;28;19935;-70
2023/01/15 03:31:04;;;;;;;;;;;6.30;99.90;;;;;;5035674;28;19928;-70
2023/01/15 03:33:30;;;;;;;;;;;6.40;99.90;;;;;;5034360;28;20289;-70
2023/01/15 03:35:57;;;;;;;;;;;6.40;99.90;;;;;;5035388;28;19925;-71
2023/01/15 03:38:31;;;;;;;;;;;6.30;99.90;;;;;;5034529;28;19921;-71
2023/01/15 03:41:17;;;;;;;;;;;6.30;99.90;;;;;;5014945;28;19956;-70
2023/01/15 03:44:06;;;;;;;;;;;6.30;99.90;;;;;;5016523;28;19921;-71
2023/01/15 03:46:40;;;;;;;;;;;6.30;99.90;;;;;;5032432;28;19960;-70
2023/01/15 03:49:25;;;;;;;;;;;6.20;99.90;;;;;;5035423;28;20003;-70
2023/01/15 03:52:23;;;;;;;;;;;6.20;99.90;;;;;;5014182;28;20398;-70
2023/01/15 03:55:06;;;;;;;;;;;6.20;99.90;;;;;;5000881;28;19921;-70
2023/01/15 03:57:35;;;;;;;;;;;6.20;99.90;;;;;;5032313;28;19921;-70
2023/01/15 04:00:06;;;;;;;;;;;6.90;99.90;;;;;;5016903;28;20376;-70
2023/01/15 04:02:32;;;;;;;;;;;6.10;99.90;;;;;;5034959;28;19929;-69
2023/01/15 04:05:01;;;;;;;;;;;6.00;99.90;;;;;;5034786;28;19928;-70
2023/01/15 04:07:29;;;;;;;;;;;6.00;99.90;;;;;;5034379;28;19921;-70
2023/01/15 04:09:56;;;;;;;;;;;6.00;99.90;;;;;;5016569;28;19921;-70
2023/01/15 04:12:22;;;;;;;;;;;6.00;99.90;;;;;;5034573;28;20339;-70
2023/01/15 04:14:47;;;;;;;;;;;6.00;99.90;;;;;;5033891;28;19925;-70
2023/01/15 04:17:13;;;;;;;;;;;7.60;99.90;;;;;;5035217;28;20020;-69
2023/01/15 04:19:38;;;;;;;;;;;6.10;99.90;;;;;;5034787;28;19921;-70
2023/01/15 04:22:04;;;;;;;;;;;7.30;99.90;;;;;;5034051;28;19921;-70
2023/01/15 04:24:30;;;;;;;;;;;6.50;99.90;;;;;;5034313;28;19944;-69
2023/01/15 04:26:55;;;;;;;;;;;6.00;99.90;;;;;;5017013;28;19929;-70
2023/01/15 04:29:21;;;;;;;;;;;6.80;99.90;;;;;;5033342;28;20323;-70
2023/01/15 04:31:47;;;;;;;;;;;6.00;99.90;;;;;;5034186;28;19928;-70
2023/01/15 04:34:12;;;;;;;;;;;6.00;99.90;;;;;;5034956;28;19920;-70
2023/01/15 04:36:38;;;;;;;;;;;5.90;99.90;;;;;;5015819;28;19921;-70
2023/01/15 04:39:04;;;;;;;;;;;6.90;99.90;;;;;;5034532;28;19990;-71
2023/01/15 04:44:13;;;;;;;;;;;6.50;99.90;;;;;;5030796;28;20373;-70
2023/01/15 04:46:43;;;;;;;;;;;6.00;99.90;;;;;;5034775;28;19921;-70
2023/01/15 04:49:10;;;;;;;;;;;6.00;99.90;;;;;;5029633;28;20004;-70
2023/01/15 04:51:36;;;;;;;;;;;6.00;99.90;;;;;;5034441;28;20335;-70
2023/01/15 04:54:05;;;;;;;;;;;6.00;99.90;;;;;;5034343;28;20011;-70
2023/01/15 04:56:31;;;;;;;;;;;5.90;99.90;;;;;;5033309;28;19959;-70
2023/01/15 04:59:16;;;;;;;;;;;6.90;99.90;;;;;;5033566;28;19921;-70
2023/01/15 05:01:42;;;;;;;;;;;5.90;99.90;;;;;;5033685;28;20062;-70
2023/01/15 05:04:08;;;;;;;;;;;5.90;99.90;;;;;;5033601;28;20011;-69
2023/01/15 05:06:33;;;;;;;;;;;6.00;99.90;;;;;;5027867;28;19932;-70
2023/01/15 05:08:59;;;;;;;;;;;5.60;99.90;;;;;;5032237;28;19929;-70
2023/01/15 05:11:25;;;;;;;;;;;5.90;99.90;;;;;;5031810;28;19925;-70
2023/01/15 05:13:51;;;;;;;;;;;5.90;99.90;;;;;;5032817;28;19920;-69
2023/01/15 05:16:19;;;;;;;;;;;7.00;99.90;;;;;;5031572;28;20361;-70
2023/01/15 05:18:46;;;;;;;;;;;8.10;99.90;;;;;;5033311;28;19925;-70
2023/01/15 05:21:24;;;;;;;;;;;6.20;99.90;;;;;;5033875;28;19921;-70
2023/01/15 05:23:52;;;;;;;;;;;5.90;99.90;;;;;;5032619;28;19936;-70
2023/01/15 05:26:17;;;;;;;;;;;5.90;99.90;;;;;;5031987;28;19921;-69
2023/01/15 05:28:43;;;;;;;;;;;6.20;99.90;;;;;;5033262;28;19921;-69
2023/01/15 05:31:10;;;;;;;;;;;5.90;99.90;;;;;;5031404;28;19921;-70
2023/01/15 05:33:36;;;;;;;;;;;6.00;99.90;;;;;;5031986;28;19975;-70
2023/01/15 05:36:03;;;;;;;;;;;6.10;99.90;;;;;;5032184;28;19960;-70
2023/01/15 05:38:28;;;;;;;;;;;5.80;99.90;;;;;;5031201;28;20476;-70
2023/01/15 05:40:55;;;;;;;;;;;5.70;99.90;;;;;;5032043;28;20031;-70
2023/01/15 05:43:21;;;;;;;;;;;5.70;99.90;;;;;;5032992;28;19967;-70
2023/01/15 05:45:46;;;;;;;;;;;5.70;99.90;;;;;;5032064;28;19925;-70
2023/01/15 05:48:12;;;;;;;;;;;6.00;99.90;;;;;;5032487;28;19921;-70
2023/01/15 05:50:37;;;;;;;;;;;5.80;99.90;;;;;;5032663;28;19920;-70
2023/01/15 05:53:03;;;;;;;;;;;5.80;99.90;;;;;;5030911;28;19968;-70
2023/01/15 05:55:28;;;;;;;;;;;5.70;99.90;;;;;;5031688;28;19925;-69
2023/01/15 05:57:54;;;;;;;;;;;5.70;99.90;;;;;;5031169;28;19921;-69
2023/01/15 06:00:20;;;;;;;;;;;5.60;99.90;;;;;;5030593;28;19929;-70
2023/01/15 06:02:49;;;;;;;;;;;5.70;99.90;;;;;;5032860;28;20003;-70
2023/01/15 06:05:19;;;;;;;;;;;5.70;99.90;;;;;;5032351;28;20422;-70
2023/01/15 06:07:47;;;;;;;;;;;5.70;99.90;;;;;;5032232;28;19975;-70
2023/01/15 06:10:12;;;;;;;;;;;5.70;99.90;;;;;;5014542;28;19956;-70
2023/01/15 06:12:38;;;;;;;;;;;5.70;99.90;;;;;;5014041;28;19963;-70
2023/01/15 06:15:03;;;;;;;;;;;5.80;99.90;;;;;;5014496;28;19921;-70
2023/01/15 06:17:29;;;;;;;;;;;5.70;99.90;;;;;;5014658;28;19978;-71
2023/01/15 06:19:57;;;;;;;;;;;5.80;99.90;;;;;;5032675;28;19924;-70
2023/01/15 06:22:23;;;;;;;;;;;6.10;99.90;;;;;;5028292;28;19921;-71
2023/01/15 06:24:50;;;;;;;;;;;5.80;99.90;;;;;;5032195;28;19928;-70
2023/01/15 06:27:15;;;;;;;;;;;5.80;99.90;;;;;;5031518;28;19928;-70
2023/01/15 06:29:41;;;;;;;;;;;5.90;99.90;;;;;;5032315;28;19921;-70
2023/01/15 06:32:06;;;;;;;;;;;5.90;99.90;;;;;;5015044;28;19921;-69
2023/01/15 06:34:32;;;;;;;;;;;6.60;99.90;;;;;;5013486;28;19921;-70
2023/01/15 06:36:57;;;;;;;;;;;5.70;99.90;;;;;;5032816;28;19921;-70
2023/01/15 06:39:23;;;;;;;;;;;6.10;99.90;;;;;;5032022;28;20007;-69
2023/01/15 06:47:21;;;;;;;;;;;5.60;99.90;;;;;;5032043;28;19920;-70
2023/01/15 06:49:50;;;;;;;;;;;7.10;99.90;;;;;;5031173;28;19968;-69
2023/01/15 06:52:16;;;;;;;;;;;5.70;99.90;;;;;;5014290;28;19979;-70
2023/01/15 06:54:43;;;;;;;;;;;5.60;99.90;;;;;;5014009;28;19929;-69
2023/01/15 06:57:08;;;;;;;;;;;5.60;99.90;;;;;;5013481;28;19916;-70
2023/01/15 06:59:37;;;;;;;;;;;6.50;99.90;;;;;;5029442;28;19921;-69
2023/01/15 07:02:12;;;;;;;;;;;5.80;99.90;;;;;;5014572;28;19936;-70
2023/01/15 07:04:37;;;;;;;;;;;5.80;99.90;;;;;;5031447;28;19921;-70
2023/01/15 07:07:04;;;;;;;;;;;7.40;99.90;;;;;;5031900;28;19928;-70
2023/01/15 07:09:39;;;;;;;;;;;5.80;99.90;;;;;;5012283;28;19928;-70
2023/01/15 07:12:04;;;;;;;;;;;5.70;99.90;;;;;;5031673;28;19928;-70
2023/01/15 07:14:30;;;;;;;;;;;5.60;99.90;;;;;;5013055;28;19927;-71
2023/01/15 07:16:58;;;;;;;;;;;5.50;99.90;;;;;;5031050;28;20011;-70
2023/01/15 07:19:23;;;;;;;;;;;5.60;99.90;;;;;;5013852;28;19921;-70
2023/01/15 07:21:49;;;;;;;;;;;6.00;99.90;;;;;;5014240;28;19921;-70
2023/01/15 07:24:15;;;;;;;;;;;5.70;99.90;;;;;;5012577;28;20365;-70
2023/01/15 07:26:41;;;;;;;;;;;5.80;99.90;;;;;;5031293;28;20336;-70
2023/01/15 07:29:07;;;;;;;;;;;6.10;99.90;;;;;;5013908;28;19917;-70
2023/01/15 07:31:33;;;;;;;;;;;5.60;99.90;;;;;;5012337;28;19928;-69
2023/01/15 07:33:58;;;;;;;;;;;5.90;99.90;;;;;;5013297;28;19971;-70
2023/01/15 07:36:24;;;;;;;;;;;5.80;99.90;;;;;;5030842;28;19917;-69
2023/01/15 07:38:50;;;;;;;;;;;5.90;99.90;;;;;;5028487;28;20391;-70
2023/01/15 07:49:49;;;;;;;;;;;5.80;99.90;;;;;;5013787;28;20296;-70
2023/01/15 07:52:19;;;;;;;;;;;6.20;99.90;;;;;;5032111;28;19928;-69
2023/01/15 07:54:48;;;;;;;;;;;5.70;99.90;;;;;;5032052;28;19925;-69
2023/01/15 07:57:15;;;;;;;;;;;5.60;99.90;;;;;;5013718;28;19921;-70
2023/01/15 07:59:40;;;;;;;;;;;5.60;99.90;;;;;;5012632;28;19924;-70
2023/01/15 08:02:09;;;;;;;;;;;5.60;99.90;;;;;;5013867;28;19921;-70
2023/01/15 08:04:35;;;;;;;;;;;6.10;99.90;;;;;;5026596;28;20559;-70
2023/01/15 08:07:01;;;;;;;;;;;5.80;99.90;;;;;;5029022;28;19997;-70
2023/01/15 08:09:27;;;;;;;;;;;5.70;99.90;;;;;;5013082;28;19967;-70
2023/01/15 08:17:21;;;;;;;;;;;5.70;99.90;;;;;;5033347;28;19921;-69
2023/01/15 08:19:47;;;;;;;;;;;6.00;99.90;;;;;;5027424;28;19999;-71
2023/01/15 08:22:12;;;;;;;;;;;5.70;99.90;;;;;;5032536;28;19943;-71
2023/01/15 08:24:38;;;;;;;;;;;7.20;99.90;;;;;;5033897;28;20319;-71
2023/01/15 08:27:04;;;;;;;;;;;5.70;99.90;;;;;;5016089;28;20349;-70
2023/01/15 08:29:30;;;;;;;;;;;5.70;99.90;;;;;;5014930;28;20039;-74
2023/01/15 08:31:58;;;;;;;;;;;5.60;99.90;;;;;;5016148;28;19975;-76
2023/01/15 08:34:26;;;;;;;;;;;5.80;99.90;;;;;;5033811;28;19921;-74
2023/01/15 08:36:56;;;;;;;;;;;5.80;99.90;;;;;;5035833;28;19975;-74
2023/01/15 08:39:22;;;;;;;;;;;8.30;99.90;;;;;;5034217;28;20361;-73
2023/01/15 08:41:47;;;;;;;;;;;6.60;99.90;;;;;;5015929;28;19968;-73
2023/01/15 08:44:15;;;;;;;;;;;6.10;99.90;;;;;;5033965;28;19952;-74
2023/01/15 08:46:44;;;;;;;;;;;6.20;99.90;;;;;;5034410;28;19920;-72
2023/01/15 08:49:10;;;;;;;;;;;8.60;99.90;;;;;;5009445;28;19929;-73
2023/01/15 08:51:35;;;;;;;;;;;6.70;99.90;;;;;;5034616;28;19932;-72
2023/01/15 08:54:01;;;;;;;;;;;6.70;99.90;;;;;;5016793;28;19979;-74
2023/01/15 08:56:29;;;;;;;;;;;6.80;99.90;;;;;;5030550;28;19921;-73
2023/01/15 08:58:54;;;;;;;;;;;9.70;99.90;;;;;;5016607;28;19928;-76
2023/01/15 09:01:20;;;;;;;;;;;6.90;99.90;;;;;;5015290;28;19929;-71
2023/01/15 09:03:47;;;;;;;;;;;6.80;99.90;;;;;;5031463;28;20380;-70
2023/01/15 09:06:13;;;;;;;;;;;6.90;99.90;;;;;;5030299;28;20004;-76
2023/01/15 09:08:39;;;;;;;;;;;7.00;99.90;;;;;;5014899;28;20678;-73
2023/01/15 09:11:05;;;;;;;;;;;6.80;99.90;;;;;;5030051;28;20335;-74
2023/01/15 09:13:31;;;;;;;;;;;6.60;99.90;;;;;;5030530;28;19916;-71
2023/01/15 09:16:00;;;;;;;;;;;6.60;99.90;;;;;;5028706;28;20283;-74
2023/01/15 09:18:26;;;;;;;;;;;6.60;99.90;;;;;;5029233;28;19935;-73
2023/01/15 09:20:51;;;;;;;;;;;7.50;99.90;;;;;;5033146;28;20355;-73
2023/01/15 09:23:17;;;;;;;;;;;7.80;99.90;;;;;;5031474;28;19923;-73
2023/01/15 09:25:56;;;;;;;;;;;7.10;99.90;;;;;;5009538;28;19963;-70
2023/01/15 09:28:22;;;;;;;;;;;7.20;99.90;;;;;;5031810;28;20007;-73
2023/01/15 09:30:48;;;;;;;;;;;7.30;99.90;;;;;;5031766;28;20009;-74
2023/01/15 09:33:13;;;;;;;;;;;7.30;99.90;;;;;;5015121;28;20031;-76
2023/01/15 09:35:42;;;;;;;;;;;7.00;99.90;;;;;;5013908;28;19917;-73
2023/01/15 09:38:11;;;;;;;;;;;6.90;99.90;;;;;;5030690;28;20280;-72
2023/01/15 09:40:42;;;;;;;;;;;6.80;99.90;;;;;;5028592;28;20600;-73
2023/01/15 09:43:14;;;;;;;;;;;8.80;99.90;;;;;;5032233;28;20016;-72
2023/01/15 09:45:53;;;;;;;;;;;6.70;99.90;;;;;;5013375;28;19967;-72
2023/01/15 09:48:27;;;;;;;;;;;7.20;99.90;;;;;;5029652;28;20139;-73
2023/01/15 09:51:15;;;;;;;;;;;8.50;99.90;;;;;;5028320;28;19964;-71
2023/01/15 09:53:43;;;;;;;;;;;9.00;99.90;;;;;;5032411;28;20288;-71
2023/01/15 09:56:32;;;;;;;;;;;8.90;99.90;;;;;;5030311;28;20284;-75
2023/01/15 09:58:59;;;;;;;;;;;9.20;99.90;;;;;;5022959;28;19925;-73
2023/01/15 10:01:26;;;;;;;;;;;9.60;99.90;;;;;;5030982;28;19932;-73
2023/01/15 10:03:58;;;;;;;;;;;8.70;99.90;;;;;;5030637;28;19921;-71
2023/01/15 10:06:28;;;;;;;;;;;8.80;99.90;;;;;;5016049;28;19951;-73
2023/01/15 10:08:59;;;;;;;;;;;8.70;99.90;;;;;;5032366;28;19952;-74
2023/01/15 10:14:38;;;;;;;;;;;8.10;99.90;;;;;;5048849;28;20013;-72
2023/01/15 10:17:23;;;;;;;;;;;7.90;99.90;;;;;;5030646;28;19921;-75
2023/01/15 10:19:50;;;;;;;;;;;8.10;99.90;;;;;;5028715;28;19924;-75
2023/01/15 10:22:39;;;;;;;;;;;8.20;99.90;;;;;;5031195;28;19921;-72
2023/01/15 10:25:08;;;;;;;;;;;8.70;99.90;;;;;;5002676;28;20059;-76
2023/01/15 10:27:36;;;;;;;;;;;9.20;99.90;;;;;;5031970;28;19925;-74
2023/01/15 10:30:12;;;;;;;;;;;8.90;99.90;;;;;;5027771;28;19976;-72
2023/01/15 10:32:37;;;;;;;;;;;10.40;99.90;;;;;;5032275;28;19921;-71
2023/01/15 10:35:18;;;;;;;;;;;8.70;99.90;;;;;;5030157;28;19962;-72
2023/01/15 10:37:44;;;;;;;;;;;9.00;99.90;;;;;;5027197;28;20082;-68
2023/01/15 10:40:19;;;;;;;;;;;9.00;99.90;;;;;;5028682;28;20421;-72
2023/01/15 10:42:44;;;;;;;;;;;8.50;99.90;;;;;;5026959;28;20028;-75
2023/01/15 10:45:10;;;;;;;;;;;8.10;99.90;;;;;;5028009;28;20020;-75
2023/01/15 10:47:36;;;;;;;;;;;8.00;99.90;;;;;;5031187;28;19978;-73
2023/01/15 10:50:11;;;;;;;;;;;8.00;99.90;;;;;;5025927;28;19929;-76
2023/01/15 10:52:41;;;;;;;;;;;7.80;99.90;;;;;;5027428;28;19921;-75
2023/01/15 10:55:28;;;;;;;;;;;7.60;99.90;;;;;;5028182;28;20421;-76
2023/01/15 10:57:58;;;;;;;;;;;7.30;99.90;;;;;;5029352;28;20394;-72
2023/01/15 11:00:24;;;;;;;;;;;7.30;99.90;;;;;;5025978;28;19944;-72
2023/01/15 11:03:03;;;;;;;;;;;8.10;99.90;;;;;;5028947;28;19928;-74
2023/01/15 11:05:31;;;;;;;;;;;7.20;99.90;;;;;;5029105;28;19925;-72
2023/01/15 11:07:57;;;;;;;;;;;7.50;99.90;;;;;;5031409;28;20377;-85
2023/01/15 11:10:23;;;;;;;;;;;7.00;99.90;;;;;;5027071;28;19932;-70
2023/01/15 11:21:17;;;;;;;;;;;8.40;99.90;;;;;;5027497;28;19929;-74
2023/01/15 11:23:42;;;;;;;;;;;6.50;99.90;;;;;;5028299;28;19987;-76
2023/01/15 11:26:08;;;;;;;;;;;6.60;99.90;;;;;;5030061;28;19973;-73
2023/01/15 11:28:42;;;;;;;;;;;6.40;99.90;;;;;;5031252;28;19925;-75
2023/01/15 11:31:08;;;;;;;;;;;6.40;99.90;;;;;;5025835;28;20469;-77
2023/01/15 11:33:33;;;;;;;;;;;6.40;99.90;;;;;;5029139;28;20296;-72
2023/01/15 11:36:00;;;;;;;;;;;6.30;99.90;;;;;;5024896;28;20035;-71
2023/01/15 11:38:33;;;;;;;;;;;6.20;99.90;;;;;;5023173;28;20027;-75
2023/01/15 11:41:00;;;;;;;;;;;6.20;99.90;;;;;;5028197;28;19931;-76
2023/01/15 11:51:40;;;;;;;;;;;6.10;99.90;;;;;;5008422;28;19972;-74
2023/01/15 11:54:07;;;;;;;;;;;6.20;99.90;;;;;;5027043;28;19983;-72
2023/01/15 11:56:51;;;;;;;;;;;7.70;99.90;;;;;;5009623;28;20435;-76
2023/01/15 11:59:18;;;;;;;;;;;5.70;99.90;;;;;;5011063;28;19924;-75
2023/01/15 12:01:53;;;;;;;;;;;6.30;99.90;;;;;;5032381;28;20389;-76
2023/01/15 12:04:25;;;;;;;;;;;6.30;99.90;;;;;;5028440;28;20288;-75
2023/01/15 12:06:50;;;;;;;;;;;6.30;99.90;;;;;;5032649;28;19940;-74
2023/01/15 12:09:39;;;;;;;;;;;6.30;99.90;;;;;;5007500;28;19917;-77
2023/01/15 12:12:34;;;;;;;;;;;6.30;99.90;;;;;;5013226;28;19925;-75
2023/01/15 12:15:11;;;;;;;;;;;6.30;99.90;;;;;;4996749;28;19928;-78
2023/01/15 12:17:39;;;;;;;;;;;6.30;99.90;;;;;;5018210;28;19921;-76
2023/01/15 12:20:17;;;;;;;;;;;6.30;99.90;;;;;;5037402;28;20392;-76
2023/01/15 12:22:59;;;;;;;;;;;6.10;99.90;;;;;;5032860;28;19924;-78
2023/01/15 12:25:37;;;;;;;;;;;6.10;99.90;;;;;;5032090;28;20452;-83
2023/01/15 12:28:13;;;;;;;;;;;6.20;99.90;;;;;;4998444;28;20393;-78
2023/01/15 12:30:53;;;;;;;;;;;6.20;99.90;;;;;;5017826;28;20035;-81
2023/01/15 12:33:24;;;;;;;;;;;6.10;99.90;;;;;;5048610;28;19929;-78
2023/01/15 12:35:55;;;;;;;;;;;6.20;99.90;;;;;;5025837;28;19971;-76
2023/01/15 12:38:30;;;;;;;;;;;6.10;99.90;;;;;;5033288;28;19920;-79
2023/01/15 12:41:00;;;;;;;;;;;6.10;99.90;;;;;;5022044;28;19921;-76
2023/01/15 12:46:15;;;;;;;;;;;6.10;99.90;;;;;;5028221;28;20016;-74
2023/01/15 12:48:58;;;;;;;;;;;6.00;99.90;;;;;;5021519;28;19921;-72
2023/01/15 12:51:28;;;;;;;;;;;5.90;99.90;;;;;;5026037;28;20019;-74
2023/01/15 12:54:02;;;;;;;;;;;6.20;99.90;;;;;;5024975;28;20026;-73
2023/01/15 12:56:34;;;;;;;;;;;5.60;99.90;;;;;;5033702;28;19928;-73
2023/01/15 12:59:06;;;;;;;;;;;5.60;99.90;;;;;;5013873;28;20000;-78
2023/01/15 13:01:34;;;;;;;;;;;5.70;99.90;;;;;;5035080;28;19921;-73
2023/01/15 13:04:14;;;;;;;;;;;6.30;99.90;;;;;;5034023;28;19956;-72
2023/01/15 13:06:47;;;;;;;;;;;5.70;99.90;;;;;;5010593;28;19963;-72
2023/01/15 13:09:26;;;;;;;;;;;6.00;99.90;;;;;;5014715;28;19928;-73
2023/01/15 13:11:52;;;;;;;;;;;5.60;99.90;;;;;;5012435;28;19964;-74
2023/01/15 13:14:18;;;;;;;;;;;7.80;99.90;;;;;;5032669;28;20348;-70
2023/01/15 13:16:47;;;;;;;;;;;5.60;99.90;;;;;;5032388;28;19975;-71
2023/01/15 13:19:31;;;;;;;;;;;5.70;99.90;;;;;;5029192;28;19925;-70
2023/01/15 13:22:00;;;;;;;;;;;5.80;99.90;;;;;;5030479;28;20394;-72
2023/01/15 13:24:29;;;;;;;;;;;5.70;99.90;;;;;;5032866;28;19975;-73
2023/01/15 13:26:54;;;;;;;;;;;5.90;99.90;;;;;;5032556;28;19925;-72
2023/01/15 13:29:28;;;;;;;;;;;6.80;99.90;;;;;;5013871;28;20446;-73
2023/01/15 13:32:08;;;;;;;;;;;6.40;99.90;;;;;;5032032;28;19921;-73
2023/01/15 13:34:34;;;;;;;;;;;6.00;99.90;;;;;;5031163;28;19979;-75
2023/01/15 13:37:03;;;;;;;;;;;5.90;99.90;;;;;;5014015;28;19920;-73
2023/01/15 13:39:41;;;;;;;;;;;6.10;99.90;;;;;;5031520;28;19921;-72
2023/01/15 13:45:01;;;;;;;;;;;6.30;99.90;;;;;;5025816;28;20023;-74
2023/01/15 13:47:29;;;;;;;;;;;6.50;99.90;;;;;;5005506;28;19925;-75
2023/01/15 13:50:00;;;;;;;;;;;6.40;99.90;;;;;;5032011;28;19925;-74
2023/01/15 13:52:27;;;;;;;;;;;6.50;99.90;;;;;;5012340;28;20344;-75
2023/01/15 13:55:07;;;;;;;;;;;7.10;99.90;;;;;;5032338;28;19920;-73
2023/01/15 13:57:37;;;;;;;;;;;6.60;99.90;;;;;;5031748;28;19925;-74
2023/01/15 14:00:06;;;;;;;;;;;6.60;99.90;;;;;;5033703;28;19928;-79
2023/01/15 14:02:35;;;;;;;;;;;6.60;99.90;;;;;;5012978;28;19968;-72
2023/01/15 14:05:11;;;;;;;;;;;6.60;99.90;;;;;;5027043;28;19921;-74
2023/01/15 14:07:37;;;;;;;;;;;6.50;99.90;;;;;;5008366;28;20424;-74
2023/01/15 14:10:19;;;;;;;;;;;6.60;99.90;;;;;;5014224;28;19929;-72
2023/01/15 14:12:45;;;;;;;;;;;6.50;99.90;;;;;;5029069;28;20070;-73
2023/01/15 14:15:25;;;;;;;;;;;7.10;99.90;;;;;;5031251;28;19999;-73
2023/01/15 14:18:07;;;;;;;;;;;6.50;99.90;;;;;;5032174;28;19921;-74
2023/01/15 14:20:37;;;;;;;;;;;6.40;99.90;;;;;;5009506;28;20301;-73
2023/01/15 14:23:32;;;;;;;;;;;6.40;99.90;;;;;;5030409;28;20015;-73
2023/01/15 14:26:03;;;;;;;;;;;6.40;99.90;;;;;;4941990;28;19958;-75
2023/01/15 14:28:48;;;;;;;;;;;6.40;99.90;;;;;;5013633;28;20361;-77
2023/01/15 14:31:22;;;;;;;;;;;6.40;99.90;;;;;;5029261;28;20332;-73
2023/01/15 14:34:03;;;;;;;;;;;6.40;99.90;;;;;;5025852;28;19920;-73
2023/01/15 14:36:31;;;;;;;;;;;6.40;99.90;;;;;;5028373;28;19921;-70
2023/01/15 14:38:58;;;;;;;;;;;6.40;99.90;;;;;;5013181;28;19921;-70
2023/01/15 14:41:28;;;;;;;;;;;6.40;99.90;;;;;;5030255;28;19929;-72
2023/01/15 14:43:54;;;;;;;;;;;6.30;99.90;;;;;;5031588;28;19929;-72
2023/01/15 14:46:29;;;;;;;;;;;6.80;99.90;;;;;;5012994;28;20014;-72
2023/01/15 14:48:55;;;;;;;;;;;6.40;99.90;;;;;;5013477;28;20020;-73
2023/01/15 14:51:24;;;;;;;;;;;6.30;99.90;;;;;;5030618;28;20007;-71
2023/01/15 14:53:49;;;;;;;;;;;6.30;99.90;;;;;;5029488;28;20292;-71
2023/01/15 14:56:31;;;;;;;;;;;6.40;99.90;;;;;;5030999;28;19921;-73
2023/01/15 14:58:56;;;;;;;;;;;6.40;99.90;;;;;;5009572;28;19917;-71
2023/01/15 15:01:28;;;;;;;;;;;6.30;99.90;;;;;;5030372;28;20311;-73
2023/01/15 15:03:58;;;;;;;;;;;6.30;99.90;;;;;;5026972;28;20012;-71
2023/01/15 15:06:26;;;;;;;;;;;6.20;99.90;;;;;;5032193;28;19921;-72
2023/01/15 15:08:53;;;;;;;;;;;6.80;99.90;;;;;;5028106;28;20266;-72
2023/01/15 15:14:19;;;;;;;;;;;6.10;99.90;;;;;;5027247;28;19937;-79
2023/01/15 15:16:47;;;;;;;;;;;6.10;99.90;;;;;;5021374;28;19925;-73
2023/01/15 15:19:20;;;;;;;;;;;6.10;99.90;;;;;;5030394;28;20273;-71
2023/01/15 15:21:47;;;;;;;;;;;6.10;99.90;;;;;;5011396;28;20384;-74
2023/01/15 15:24:25;;;;;;;;;;;6.40;99.90;;;;;;5011187;28;19921;-75
2023/01/15 15:26:53;;;;;;;;;;;5.90;99.90;;;;;;5027096;28;19921;-72
2023/01/15 15:29:20;;;;;;;;;;;5.90;99.90;;;;;;5006282;28;19991;-75
2023/01/15 15:31:48;;;;;;;;;;;5.90;99.90;;;;;;5031447;28;20372;-72
2023/01/15 15:34:22;;;;;;;;;;;5.90;99.90;;;;;;5031001;28;19958;-75
2023/01/15 15:36:47;;;;;;;;;;;5.80;99.90;;;;;;5029882;28;19984;-71
2023/01/15 15:39:16;;;;;;;;;;;5.80;99.90;;;;;;5027382;28;20743;-74
2023/01/15 15:50:05;;;;;;;;;;;5.70;99.90;;;;;;5028012;28;20612;-73
2023/01/15 15:52:32;;;;;;;;;;;5.70;99.90;;;;;;5031082;28;19921;-81